createdAt,value
2018-07-20T00:00:36.706Z,73.48
2018-07-20T00:01:46.782Z,73.48
2018-07-20T00:02:56.849Z,73.54
2018-07-20T00:04:06.415Z,73.58
2018-07-20T00:05:16.477Z,73.44
2018-07-20T00:06:26.287Z,73.44
2018-07-20T00:07:36.345Z,73.06
2018-07-20T00:08:46.185Z,73.35
2018-07-20T00:09:56.309Z,73.35
2018-07-20T00:11:06.377Z,73.54
2018-07-20T00:12:16.452Z,73.06
2018-07-20T00:13:26.258Z,73.54
2018-07-20T00:14:36.334Z,73.63
2018-07-20T00:15:46.428Z,73.44
2018-07-20T00:16:56.504Z,73.54
2018-07-20T00:18:06.598Z,73.44
2018-07-20T00:19:16.680Z,73.44
2018-07-20T00:20:26.480Z,73.35
2018-07-20T00:21:36.567Z,73.25
2018-07-20T00:22:46.108Z,73.54
2018-07-20T00:23:55.941Z,73.44
2018-07-20T00:25:05.771Z,73.63
2018-07-20T00:26:15.853Z,73.54
2018-07-20T00:27:25.948Z,73.54
2018-07-20T00:28:36.022Z,73.25
2018-07-20T00:29:46.089Z,73.15
2018-07-20T00:30:56.178Z,73.15
2018-07-20T00:32:06.236Z,73.11
2018-07-20T00:33:16.047Z,73.02
2018-07-20T00:34:25.852Z,73.44
2018-07-20T00:35:35.925Z,73.11
2018-07-20T00:36:45.994Z,73.44
2018-07-20T00:37:56.074Z,73.44
2018-07-20T00:39:05.673Z,73.02
2018-07-20T00:40:15.774Z,73.06
2018-07-20T00:41:25.605Z,73.6
2018-07-20T00:42:35.668Z,73.6
2018-07-20T00:43:45.749Z,73.02
2018-07-20T00:44:55.831Z,73.31
2018-07-20T00:46:05.910Z,73.6
2018-07-20T00:47:15.999Z,73.11
2018-07-20T00:48:26.067Z,73.11
2018-07-20T00:49:36.141Z,73.41
2018-07-20T00:50:46.228Z,73.41
2018-07-20T00:51:56.044Z,73.11
2018-07-20T00:53:06.120Z,73.02
2018-07-20T00:54:15.918Z,73.5
2018-07-20T00:55:26.002Z,73.02
2018-07-20T00:56:35.863Z,73.41
2018-07-20T00:57:45.749Z,73.6
2018-07-20T00:58:55.972Z,73.31
2018-07-20T01:00:06.037Z,73.02
2018-07-20T01:01:16.123Z,73.21
2018-07-20T01:02:26.205Z,73.21
2018-07-20T01:03:36.273Z,73.02
2018-07-20T01:04:46.383Z,73.11
2018-07-20T01:05:55.932Z,73.21
2018-07-20T01:07:06.004Z,73.31
2018-07-20T01:08:15.825Z,73.02
2018-07-20T01:09:25.901Z,72.83
2018-07-20T01:10:35.995Z,73.47
2018-07-20T01:11:46.075Z,73.02
2018-07-20T01:12:56.136Z,73.5
2018-07-20T01:14:06.265Z,73.6
2018-07-20T01:15:16.076Z,73.08
2018-07-20T01:16:25.911Z,73.02
2018-07-20T01:17:35.727Z,73.47
2018-07-20T01:18:45.802Z,73.02
2018-07-20T01:19:55.978Z,73.18
2018-07-20T01:21:06.035Z,73.57
2018-07-20T01:22:16.093Z,73.47
2018-07-20T01:23:26.170Z,73.66
2018-07-20T01:24:36.244Z,73.08
2018-07-20T01:25:46.135Z,73.66
2018-07-20T01:26:55.943Z,73.37
2018-07-20T01:28:06.032Z,73.57
2018-07-20T01:29:16.095Z,73.66
2018-07-20T01:30:26.164Z,73.47
2018-07-20T01:31:36.304Z,73.47
2018-07-20T01:32:46.355Z,73.47
2018-07-20T01:33:56.417Z,73.75
2018-07-20T01:35:06.502Z,73.75
2018-07-20T01:36:16.590Z,73.75
2018-07-20T01:37:26.667Z,73.75
2018-07-20T01:38:36.782Z,73.37
2018-07-20T01:39:46.905Z,73.66
2018-07-20T01:40:56.988Z,73.47
2018-07-20T01:42:07.057Z,73.43
2018-07-20T01:43:16.915Z,73.37
2018-07-20T01:44:26.994Z,73.37
2018-07-20T01:45:37.049Z,73.57
2018-07-20T01:46:47.113Z,73.47
2018-07-20T01:47:57.169Z,73.05
2018-07-20T01:49:07.240Z,73.33
2018-07-20T01:50:17.317Z,72.99
2018-07-20T01:51:27.119Z,73.33
2018-07-20T01:52:37.180Z,73.33
2018-07-20T01:53:46.737Z,73.05
2018-07-20T01:54:56.896Z,73.37
2018-07-20T01:56:06.706Z,73.24
2018-07-20T01:57:16.783Z,72.95
2018-07-20T01:58:26.597Z,73.43
2018-07-20T01:59:36.417Z,73.33
2018-07-20T02:00:46.222Z,73.53
2018-07-20T02:01:56.301Z,72.85
2018-07-20T02:03:06.376Z,72.85
2018-07-20T02:04:16.452Z,73.43
2018-07-20T02:05:26.524Z,72.95
2018-07-20T02:06:36.597Z,72.95
2018-07-20T02:07:46.414Z,73.53
2018-07-20T02:08:56.479Z,72.95
2018-07-20T02:10:06.560Z,73.14
2018-07-20T02:11:16.376Z,73.62
2018-07-20T02:12:26.179Z,73.33
2018-07-20T02:13:36.252Z,73.53
2018-07-20T02:14:46.337Z,73.53
2018-07-20T02:15:56.419Z,73.53
2018-07-20T02:17:06.237Z,73.53
2018-07-20T02:18:16.302Z,73.33
2018-07-20T02:19:26.373Z,73.05
2018-07-20T02:20:36.427Z,73.62
2018-07-20T02:21:46.501Z,73.2
2018-07-20T02:22:56.582Z,73.24
2018-07-20T02:24:06.394Z,73.33
2018-07-20T02:25:16.218Z,73.3
2018-07-20T02:26:26.295Z,73.24
2018-07-20T02:27:36.371Z,73.49
2018-07-20T02:28:46.439Z,73.43
2018-07-20T02:29:56.538Z,73.3
2018-07-20T02:31:06.604Z,73.39
2018-07-20T02:32:16.407Z,73.43
2018-07-20T02:33:26.522Z,73.39
2018-07-20T02:34:36.594Z,73.39
2018-07-20T02:35:46.409Z,73.3
2018-07-20T02:36:56.239Z,73.49
2018-07-20T02:38:06.082Z,73.49
2018-07-20T02:39:16.152Z,73.39
2018-07-20T02:40:26.243Z,73.49
2018-07-20T02:41:36.055Z,73.39
2018-07-20T02:42:46.174Z,73.49
2018-07-20T02:43:55.996Z,73.01
2018-07-20T02:45:06.075Z,73.1
2018-07-20T02:46:15.894Z,73.3
2018-07-20T02:47:25.981Z,73.58
2018-07-20T02:48:36.064Z,73.39
2018-07-20T02:49:45.892Z,73.3
2018-07-20T02:50:55.953Z,73.39
2018-07-20T02:52:05.758Z,73.39
2018-07-20T02:53:15.833Z,73.49
2018-07-20T02:54:25.912Z,73.49
2018-07-20T02:55:35.999Z,73.68
2018-07-20T02:56:46.080Z,73.49
2018-07-20T02:57:56.178Z,73.3
2018-07-20T02:59:06.257Z,73.1
2018-07-20T03:00:16.341Z,73.01
2018-07-20T03:01:26.411Z,73.1
2018-07-20T03:02:36.233Z,73.1
2018-07-20T03:35:03.242Z,67.58
2018-07-20T03:36:13.051Z,67.86
2018-07-20T03:37:23.134Z,68.54
2018-07-20T03:38:33.221Z,68.92
2018-07-20T03:39:43.296Z,69.69
2018-07-20T03:40:53.380Z,70.3
2018-07-20T03:42:03.436Z,70.3
2018-07-20T03:43:13.255Z,70.68
2018-07-20T03:44:23.339Z,71.65
2018-07-20T03:45:33.155Z,71.26
2018-07-20T03:46:43.283Z,71.75
2018-07-20T03:47:53.360Z,71.88
2018-07-20T03:49:03.553Z,71.88
2018-07-20T03:50:13.928Z,71.59
2018-07-20T03:51:23.995Z,72.26
2018-07-20T03:52:34.068Z,72.78
2018-07-20T03:53:44.152Z,72.68
2018-07-20T03:54:54.226Z,72.3
2018-07-20T03:56:04.306Z,72.3
2018-07-20T03:57:14.382Z,72.49
2018-07-20T03:58:24.474Z,72.63
2018-07-20T03:59:34.282Z,72.33
2018-07-20T04:00:44.078Z,72.63
2018-07-20T04:01:54.140Z,72.24
2018-07-20T04:03:04.224Z,72.14
2018-07-20T04:04:14.311Z,72.14
2018-07-20T04:05:24.400Z,72.53
2018-07-20T04:06:34.479Z,72.37
2018-07-20T04:07:44.292Z,72.37
2018-07-20T04:08:54.377Z,72.37
2018-07-20T04:10:04.459Z,72.37
2018-07-20T04:11:14.720Z,72.37
2018-07-20T04:12:24.547Z,72.37
2018-07-20T04:13:34.681Z,72.75
2018-07-20T04:14:44.751Z,72.75
2018-07-20T04:15:54.875Z,72.75
2018-07-20T04:17:04.433Z,71.98
2018-07-20T04:18:14.266Z,72.37
2018-07-20T04:19:24.349Z,72.12
2018-07-20T04:20:34.435Z,72.31
2018-07-20T04:21:45.561Z,72.21
2018-07-20T04:22:55.637Z,71.54
2018-07-20T04:24:05.700Z,71.83
2018-07-20T04:25:15.780Z,71.73
2018-07-20T04:26:25.589Z,71.64
2018-07-20T04:27:35.669Z,72.12
2018-07-20T04:28:45.744Z,71.96
2018-07-20T04:29:55.824Z,69.78
2018-07-20T04:31:05.642Z,67.01
2018-07-20T04:32:15.724Z,64.85
2018-07-20T04:33:25.552Z,63.84
2018-07-20T04:34:35.616Z,62.84
2018-07-20T04:35:45.688Z,62.73
2018-07-20T04:36:55.755Z,61.82
2018-07-20T04:38:05.831Z,61.33
2018-07-20T04:39:15.639Z,61.45
2018-07-20T04:40:25.457Z,61.87
2018-07-20T04:41:35.545Z,61.64
2018-07-20T04:42:45.625Z,61.28
2018-07-20T04:43:55.560Z,61.31
2018-07-20T04:45:05.819Z,61.34
2018-07-20T04:46:15.902Z,61.18
2018-07-20T04:47:25.985Z,61.76
2018-07-20T04:48:35.820Z,61.79
2018-07-20T04:49:45.922Z,62.64
2018-07-20T04:50:56.077Z,63.4
2018-07-20T04:52:06.158Z,63.66
2018-07-20T04:53:16.235Z,62.81
2018-07-20T04:54:26.317Z,62.15
2018-07-20T04:55:36.400Z,62.08
2018-07-20T04:56:46.461Z,62.02
2018-07-20T04:57:56.527Z,61.55
2018-07-20T04:59:06.331Z,61.36
2018-07-20T05:00:16.129Z,61.29
2018-07-20T05:01:26.207Z,61.61
2018-07-20T05:02:36.325Z,61.81
2018-07-20T05:03:46.675Z,61.55
2018-07-20T05:04:56.970Z,61.52
2018-07-20T05:06:07.061Z,61.61
2018-07-20T05:07:16.884Z,61.45
2018-07-20T05:08:27.070Z,61.45
2018-07-20T05:09:37.161Z,61.74
2018-07-20T05:10:46.972Z,61.55
2018-07-20T05:11:57.057Z,61.55
2018-07-20T05:13:07.145Z,61.58
2018-07-20T05:14:17.000Z,61.77
2018-07-20T05:15:26.813Z,61.45
2018-07-20T05:16:36.630Z,61.74
2018-07-20T05:17:46.704Z,61.55
2018-07-20T05:18:56.788Z,61.65
2018-07-20T05:20:06.632Z,61.48
2018-07-20T05:21:16.699Z,61.25
2018-07-20T05:22:26.805Z,61.25
2018-07-20T05:23:36.889Z,62.04
2018-07-20T05:24:46.977Z,61.45
2018-07-20T05:25:57.049Z,62.04
2018-07-20T05:27:07.138Z,62.04
2018-07-20T05:28:17.214Z,61.65
2018-07-20T05:29:27.288Z,61.45
2018-07-20T05:30:37.387Z,62.14
2018-07-20T05:31:48.476Z,62.04
2018-07-20T05:32:58.562Z,61.94
2018-07-20T05:34:08.654Z,61.94
2018-07-20T05:35:18.749Z,61.94
2018-07-20T05:36:28.305Z,61.84
2018-07-20T05:37:38.160Z,61.84
2018-07-20T05:38:48.260Z,62.11
2018-07-20T05:39:58.075Z,62.5
2018-07-20T05:41:08.192Z,62.3
2018-07-20T05:42:18.285Z,62.3
2018-07-20T05:43:27.834Z,62.3
2018-07-20T05:44:37.661Z,61.91
2018-07-20T05:45:47.763Z,62.08
2018-07-20T05:46:57.588Z,62.18
2018-07-20T05:48:07.693Z,62.27
2018-07-20T05:49:17.577Z,62.11
2018-07-20T05:50:27.376Z,62.3
2018-07-20T05:51:37.191Z,62.47
2018-07-20T05:52:47.261Z,62.57
2018-07-20T05:53:57.090Z,63.45
2018-07-20T05:55:06.904Z,63.26
2018-07-20T05:56:16.716Z,62.84
2018-07-20T05:57:26.537Z,63.32
2018-07-20T05:58:36.629Z,63.23
2018-07-20T05:59:46.435Z,63.62
2018-07-20T06:00:56.503Z,63.62
2018-07-20T06:02:06.580Z,63.42
2018-07-20T06:03:16.654Z,63.71
2018-07-20T06:04:26.760Z,63.68
2018-07-20T06:05:36.664Z,63.49
2018-07-20T06:06:47.123Z,63.88
2018-07-20T06:07:57.289Z,64.04
2018-07-20T06:09:07.386Z,64.44
2018-07-20T06:10:17.540Z,64.7
2018-07-20T06:11:27.364Z,64.67
2018-07-20T06:12:36.977Z,64.97
2018-07-20T06:13:46.850Z,65.33
2018-07-20T06:14:56.966Z,65.42
2018-07-20T06:16:07.056Z,65.52
2018-07-20T06:17:17.168Z,65.23
2018-07-20T06:18:27.381Z,65.62
2018-07-20T06:19:37.208Z,65.59
2018-07-20T06:20:47.285Z,67.02
2018-07-20T06:21:57.193Z,68.39
2018-07-20T06:23:07.284Z,69.65
2018-07-20T06:24:17.382Z,69.88
2018-07-20T06:25:27.471Z,70.43
2018-07-20T06:26:37.283Z,70.2
2018-07-20T06:27:47.385Z,70.17
2018-07-20T06:28:57.483Z,70.26
2018-07-20T06:30:07.605Z,70.56
2018-07-20T06:31:17.687Z,70.81
2018-07-20T06:32:27.510Z,70.52
2018-07-20T06:33:37.573Z,70.13
2018-07-20T06:34:47.672Z,69.26
2018-07-20T06:35:57.785Z,68.12
2018-07-20T06:37:07.875Z,68.26
2018-07-20T06:38:17.958Z,67.67
2018-07-20T06:39:27.513Z,67.5
2018-07-20T06:40:37.697Z,67.5
2018-07-20T06:41:47.991Z,67.8
2018-07-20T06:42:58.066Z,67.41
2018-07-20T06:44:08.132Z,67.7
2018-07-20T06:45:18.204Z,67.6
2018-07-20T06:46:27.754Z,67.83
2018-07-20T06:47:37.839Z,67.8
2018-07-20T06:48:47.933Z,67.5
2018-07-20T06:49:57.558Z,67.5
2018-07-20T06:51:07.643Z,68.19
2018-07-20T06:52:17.734Z,68.48
2018-07-20T06:53:27.877Z,68.77
2018-07-20T06:54:37.689Z,68.55
2018-07-20T06:55:47.820Z,68.26
2018-07-20T06:56:57.521Z,68.16
2018-07-20T06:58:07.605Z,68.16
2018-07-20T06:59:17.424Z,68.8
2018-07-20T07:00:27.513Z,68.9
2018-07-20T07:01:37.575Z,68.71
2018-07-20T07:02:47.658Z,68.9
2018-07-20T07:03:57.749Z,69.1
2018-07-20T07:05:07.852Z,69.55
2018-07-20T07:06:17.914Z,69.16
2018-07-20T07:07:27.724Z,69.26
2018-07-20T07:08:37.534Z,69.35
2018-07-20T07:09:47.640Z,69.9
2018-07-20T07:10:57.729Z,69.81
2018-07-20T07:12:07.838Z,70.29
2018-07-20T07:13:17.912Z,70.58
2018-07-20T07:14:27.458Z,70.49
2018-07-20T07:15:37.535Z,70.29
2018-07-20T07:16:47.670Z,70.2
2018-07-20T07:17:57.742Z,69.87
2018-07-20T07:19:07.794Z,69.87
2018-07-20T07:20:17.855Z,70.06
2018-07-20T07:21:27.666Z,69.96
2018-07-20T07:22:37.761Z,70.06
2018-07-20T07:23:48.007Z,70.55
2018-07-20T07:24:58.090Z,70.06
2018-07-20T07:26:08.173Z,70.16
2018-07-20T07:27:18.253Z,69.96
2018-07-20T07:28:28.418Z,70.06
2018-07-20T07:29:38.686Z,70.26
2018-07-20T07:30:48.776Z,70.06
2018-07-20T07:31:59.004Z,70.16
2018-07-20T07:33:09.126Z,70.26
2018-07-20T07:34:18.988Z,70.36
2018-07-20T07:35:29.055Z,70.36
2018-07-20T07:36:39.123Z,70.36
2018-07-20T07:37:48.945Z,70.55
2018-07-20T07:38:59.038Z,70.06
2018-07-20T07:40:09.180Z,70.26
2018-07-20T07:41:19.260Z,70.26
2018-07-20T07:42:29.091Z,69.77
2018-07-20T07:43:39.183Z,69.87
2018-07-20T07:44:49.253Z,69.71
2018-07-20T07:45:59.357Z,70.1
2018-07-20T07:47:09.434Z,69.42
2018-07-20T07:48:19.496Z,69.51
2018-07-20T07:49:29.305Z,69.81
2018-07-20T07:50:39.368Z,69.94
2018-07-20T07:51:49.500Z,69.45
2018-07-20T07:52:59.556Z,69.35
2018-07-20T07:54:09.622Z,69.39
2018-07-20T07:55:19.172Z,69.1
2018-07-20T07:56:29.257Z,69.29
2018-07-20T07:57:39.327Z,69.48
2018-07-20T07:58:49.392Z,69.39
2018-07-20T07:59:59.218Z,69.68
2018-07-20T08:01:09.307Z,69.29
2018-07-20T08:02:19.137Z,69.39
2018-07-20T08:03:29.350Z,68.84
2018-07-20T08:04:39.541Z,68.64
2018-07-20T08:05:49.626Z,68.84
2018-07-20T08:06:59.720Z,68.87
2018-07-20T08:08:09.518Z,68.29
2018-07-20T08:09:19.598Z,68.23
2018-07-20T08:10:29.577Z,68.32
2018-07-20T08:11:39.392Z,68.42
2018-07-20T08:12:49.462Z,68.8
2018-07-20T08:13:59.283Z,68.77
2018-07-20T08:15:09.149Z,69.2
2018-07-20T08:16:19.240Z,69
2018-07-20T08:17:29.079Z,69.1
2018-07-20T08:18:39.150Z,68.45
2018-07-20T08:19:49.239Z,68.26
2018-07-20T08:20:59.307Z,68.19
2018-07-20T08:22:09.123Z,68.29
2018-07-20T08:23:19.204Z,68.49
2018-07-20T08:24:29.282Z,68.39
2018-07-20T08:25:39.340Z,68.52
2018-07-20T08:26:49.517Z,68.55
2018-07-20T08:27:59.328Z,67.48
2018-07-20T08:29:09.412Z,68
2018-07-20T08:30:19.226Z,67.71
2018-07-20T08:31:29.311Z,67.05
2018-07-20T08:32:39.438Z,66.8
2018-07-20T08:33:49.522Z,66.93
2018-07-20T08:34:59.611Z,66.96
2018-07-20T08:36:09.692Z,67.05
2018-07-20T08:37:19.775Z,66.96
2018-07-20T08:38:29.117Z,67.54
2018-07-20T08:39:39.193Z,67.9
2018-07-20T08:40:49.305Z,67.9
2018-07-20T08:41:59.376Z,68
2018-07-20T08:43:09.447Z,67.8
2018-07-20T08:44:19.325Z,68.49
2018-07-20T08:45:29.146Z,67.8
2018-07-20T08:46:39.152Z,67.54
2018-07-20T08:47:49.303Z,67.84
2018-07-20T08:48:59.395Z,68.13
2018-07-20T08:50:09.496Z,67.97
2018-07-20T08:51:19.341Z,67.74
2018-07-20T08:52:29.147Z,67.38
2018-07-20T08:53:39.229Z,66.79
2018-07-20T08:54:48.799Z,66.93
2018-07-20T08:55:58.937Z,67.71
2018-07-20T08:57:08.739Z,67.77
2018-07-20T08:58:18.565Z,67.58
2018-07-20T08:59:28.646Z,67.41
2018-07-20T09:00:38.726Z,67.55
2018-07-20T09:01:48.814Z,67.94
2018-07-20T09:02:58.907Z,67.84
2018-07-20T09:04:09.008Z,67.55
2018-07-20T09:05:19.117Z,67.84
2018-07-20T09:06:29.203Z,68.13
2018-07-20T09:07:39.299Z,68
2018-07-20T09:08:49.116Z,68
2018-07-20T09:09:59.178Z,68.3
2018-07-20T09:11:09.315Z,68.07
2018-07-20T09:12:19.463Z,68.26
2018-07-20T09:13:29.658Z,68.3
2018-07-20T09:14:39.766Z,67.97
2018-07-20T09:15:49.589Z,68.16
2018-07-20T09:16:59.687Z,68.16
2018-07-20T09:18:09.770Z,68.3
2018-07-20T09:19:19.855Z,68.36
2018-07-20T09:20:29.693Z,68.46
2018-07-20T09:21:39.943Z,68.36
2018-07-20T09:22:49.792Z,68.36
2018-07-20T09:23:59.875Z,68.26
2018-07-20T09:25:09.994Z,68.4
2018-07-20T09:26:19.839Z,68.2
2018-07-20T09:27:29.920Z,67.74
2018-07-20T09:28:39.738Z,67.25
2018-07-20T09:29:49.833Z,68.13
2018-07-20T09:30:59.894Z,67.94
2018-07-20T09:32:09.985Z,68.79
2018-07-20T09:33:19.824Z,68.79
2018-07-20T09:34:29.888Z,68.88
2018-07-20T09:35:40.038Z,69.15
2018-07-20T09:36:50.133Z,69.31
2018-07-20T09:38:00.201Z,68.29
2018-07-20T09:39:10.293Z,68.82
2018-07-20T09:40:20.362Z,68.55
2018-07-20T09:41:30.171Z,68.75
2018-07-20T09:42:40.262Z,68.68
2018-07-20T09:43:50.175Z,68.82
2018-07-20T09:45:00.253Z,68.62
2018-07-20T09:46:10.068Z,68.36
2018-07-20T09:47:20.161Z,68.26
2018-07-20T09:48:30.277Z,67.58
2018-07-20T09:49:40.085Z,68.04
2018-07-20T09:50:50.177Z,67.87
2018-07-20T09:52:00.003Z,67.68
2018-07-20T09:53:10.101Z,67.97
2018-07-20T09:54:19.946Z,68.26
2018-07-20T09:55:30.058Z,68.37
2018-07-20T09:56:40.145Z,68.26
2018-07-20T09:57:50.229Z,68.82
2018-07-20T09:59:00.313Z,68.49
2018-07-20T10:00:10.406Z,69.47
2018-07-20T10:01:20.561Z,69.15
2018-07-20T10:02:30.664Z,69.79
2018-07-20T10:03:40.756Z,69.31
2018-07-20T10:04:50.357Z,69.21
2018-07-20T10:06:00.304Z,69.44
2018-07-20T10:07:10.115Z,68.65
2018-07-20T10:08:20.184Z,69.18
2018-07-20T10:09:30.273Z,68.72
2018-07-20T10:10:40.397Z,68.13
2018-07-20T10:11:50.484Z,69.31
2018-07-20T10:13:00.568Z,68.72
2018-07-20T10:14:10.663Z,68.88
2018-07-20T10:15:20.749Z,69.44
2018-07-20T10:16:30.553Z,68.98
2018-07-20T10:17:40.657Z,68.82
2018-07-20T10:18:50.735Z,67.97
2018-07-20T10:20:00.295Z,68.01
2018-07-20T10:21:10.129Z,67.74
2018-07-20T10:22:20.228Z,68.01
2018-07-20T10:23:30.323Z,68.04
2018-07-20T10:24:40.405Z,68.95
2018-07-20T10:25:50.504Z,68.59
2018-07-20T10:27:00.623Z,69.54
2018-07-20T10:28:10.404Z,69.31
2018-07-20T10:29:20.497Z,69.67
2018-07-20T10:30:30.598Z,69.24
2018-07-20T10:31:40.913Z,69.37
2018-07-20T10:32:50.997Z,68.62
2018-07-20T10:34:01.071Z,69.02
2018-07-20T10:35:10.902Z,68.95
2018-07-20T10:36:21.043Z,69.15
2018-07-20T10:37:30.930Z,68.56
2018-07-20T10:38:40.761Z,68.79
2018-07-20T10:39:50.822Z,68.88
2018-07-20T10:41:00.643Z,68.3
2018-07-20T10:42:10.804Z,68.33
2018-07-20T10:43:20.883Z,68.27
2018-07-20T10:44:30.973Z,68.1
2018-07-20T10:45:41.202Z,67.94
2018-07-20T10:46:51.340Z,68.3
2018-07-20T10:48:01.791Z,68.95
2018-07-20T10:49:11.906Z,68.52
2018-07-20T10:50:22.004Z,69.28
2018-07-20T10:51:31.807Z,69.93
2018-07-20T10:52:41.473Z,69.84
2018-07-20T10:53:51.759Z,70.48
2018-07-20T10:55:01.853Z,69.6
2018-07-20T10:56:11.934Z,69.31
2018-07-20T10:57:21.855Z,68.95
2018-07-20T10:58:31.417Z,68.69
2018-07-20T10:59:41.568Z,68.79
2018-07-20T11:00:51.655Z,69.09
2018-07-20T11:02:01.468Z,69.38
2018-07-20T11:03:11.538Z,68.79
2018-07-20T11:04:21.364Z,68.88
2018-07-20T11:05:31.497Z,68.63
2018-07-20T11:06:41.571Z,68.46
2018-07-20T11:07:51.690Z,68.07
2018-07-20T11:09:01.898Z,67.91
2018-07-20T11:10:11.977Z,68.1
2018-07-20T11:11:22.052Z,67.91
2018-07-20T11:12:32.124Z,68.01
2018-07-20T11:13:42.264Z,67.94
2018-07-20T11:14:52.623Z,68.73
2018-07-20T11:16:02.727Z,67.94
2018-07-20T11:17:12.825Z,67.97
2018-07-20T11:18:22.893Z,67.91
2018-07-20T11:19:32.962Z,68.1
2018-07-20T11:20:43.057Z,68.1
2018-07-20T11:21:52.890Z,67.65
2018-07-20T11:23:02.974Z,67.65
2018-07-20T11:24:13.062Z,67.84
2018-07-20T11:25:23.157Z,67.94
2018-07-20T11:26:33.244Z,68.63
2018-07-20T11:27:43.360Z,68.33
2018-07-20T11:28:53.439Z,68.43
2018-07-20T11:30:03.524Z,67.94
2018-07-20T11:31:13.646Z,68.04
2018-07-20T11:32:23.469Z,68.53
2018-07-20T11:33:33.550Z,68.86
2018-07-20T11:34:43.734Z,69.18
2018-07-20T11:35:53.648Z,68.96
2018-07-20T11:37:03.746Z,68.76
2018-07-20T11:38:13.587Z,69.22
2018-07-20T11:39:23.424Z,69.06
2018-07-20T11:40:33.559Z,69.81
2018-07-20T11:41:43.667Z,69.68
2018-07-20T11:42:53.595Z,69.54
2018-07-20T11:44:03.690Z,69.25
2018-07-20T11:45:13.776Z,69.54
2018-07-20T11:46:23.924Z,69.18
2018-07-20T11:47:34.021Z,68.53
2018-07-20T11:48:44.093Z,68.37
2018-07-20T11:49:54.183Z,68.2
2018-07-20T11:51:04.016Z,68.5
2018-07-20T11:52:13.600Z,69.18
2018-07-20T11:53:23.677Z,68.73
2018-07-20T11:54:33.788Z,69.12
2018-07-20T11:55:43.875Z,68.76
2018-07-20T11:56:53.748Z,69.25
2018-07-20T11:58:03.885Z,69.32
2018-07-20T11:59:13.964Z,70.07
2018-07-20T12:00:24.055Z,69.93
2018-07-20T12:01:34.159Z,70
2018-07-20T12:02:44.243Z,69.15
2018-07-20T12:03:54.141Z,69.45
2018-07-20T12:05:04.232Z,69.93
2018-07-20T12:06:14.044Z,70.1
2018-07-20T12:07:24.141Z,69.9
2018-07-20T12:08:34.247Z,69.51
2018-07-20T12:09:44.115Z,69.41
2018-07-20T12:10:54.190Z,69.51
2018-07-20T12:12:04.281Z,69.51
2018-07-20T12:13:14.128Z,69.51
2018-07-20T12:14:24.222Z,69.12
2018-07-20T12:15:34.330Z,69.41
2018-07-20T12:16:44.411Z,69.41
2018-07-20T12:17:54.510Z,69.31
2018-07-20T12:19:04.663Z,69.71
2018-07-20T12:20:14.745Z,69.57
2018-07-20T12:21:24.592Z,70.06
2018-07-20T12:22:34.681Z,69.77
2018-07-20T12:23:44.765Z,69.96
2018-07-20T12:24:54.867Z,69.93
2018-07-20T12:26:04.973Z,70.42
2018-07-20T12:27:14.809Z,69.93
2018-07-20T12:28:24.887Z,69.38
2018-07-20T12:29:34.978Z,69.02
2018-07-20T12:30:45.120Z,69.64
2018-07-20T12:31:54.960Z,68.76
2018-07-20T12:33:05.043Z,69.05
2018-07-20T12:34:15.125Z,69.45
2018-07-20T12:35:25.198Z,69.9
2018-07-20T12:36:35.013Z,70.16
2018-07-20T12:37:45.137Z,70.72
2018-07-20T12:38:54.968Z,71.11
2018-07-20T12:40:05.049Z,70.91
2018-07-20T12:41:15.190Z,70.72
2018-07-20T12:42:25.083Z,70.88
2018-07-20T12:43:35.235Z,70.59
2018-07-20T12:44:45.317Z,70.09
2018-07-20T12:45:55.397Z,70.32
2018-07-20T12:47:05.486Z,69.73
2018-07-20T12:48:15.591Z,69.73
2018-07-20T12:49:25.465Z,69.09
2018-07-20T12:50:35.604Z,68.95
2018-07-20T12:51:45.694Z,68.4
2018-07-20T12:52:55.790Z,68.04
2018-07-20T12:54:05.853Z,68.53
2018-07-20T12:55:15.982Z,68.46
2018-07-20T12:56:26.080Z,68.2
2018-07-20T12:57:36.174Z,68.3
2018-07-20T12:58:46.533Z,68.43
2018-07-20T12:59:56.872Z,68.04
2018-07-20T13:01:07.026Z,68.33
2018-07-20T13:02:17.148Z,69.29
2018-07-20T13:03:26.973Z,69.81
2018-07-20T13:04:37.081Z,70.07
2018-07-20T13:05:46.890Z,70.36
2018-07-20T13:06:56.753Z,70.53
2018-07-20T13:08:06.832Z,71.28
2018-07-20T13:09:16.967Z,71.14
2018-07-20T13:10:27.056Z,70.56
2018-07-20T13:11:37.146Z,70.52
2018-07-20T13:12:47.306Z,70.91
2018-07-20T13:13:57.392Z,70.16
2018-07-20T13:15:07.486Z,70.36
2018-07-20T13:16:17.326Z,71.14
2018-07-20T13:17:27.429Z,70.91
2018-07-20T13:18:37.573Z,71.01
2018-07-20T13:19:47.653Z,71.08
2018-07-20T13:20:57.742Z,71.47
2018-07-20T13:22:07.841Z,71.33
2018-07-20T13:23:17.663Z,71.33
2018-07-20T13:24:27.800Z,71.33
2018-07-20T13:25:37.929Z,71.04
2018-07-20T13:26:48.018Z,70.48
2018-07-20T13:27:58.114Z,70.84
2018-07-20T13:29:08.255Z,70.94
2018-07-20T13:30:18.427Z,70.19
2018-07-20T13:31:28.527Z,70.13
2018-07-20T13:32:38.620Z,69.84
2018-07-20T13:33:48.695Z,69.96
2018-07-20T13:34:58.756Z,69.28
2018-07-20T13:36:08.570Z,69.51
2018-07-20T13:37:18.660Z,69.35
2018-07-20T13:38:28.481Z,69.18
2018-07-20T13:39:38.568Z,68.79
2018-07-20T13:40:48.807Z,68.79
2018-07-20T13:41:58.651Z,68.92
2018-07-20T13:43:08.739Z,69.68
2018-07-20T13:44:18.581Z,69.48
2018-07-20T13:45:28.766Z,69.38
2018-07-20T13:46:38.981Z,69.97
2018-07-20T13:47:49.082Z,70.23
2018-07-20T13:48:59.161Z,71.28
2018-07-20T13:50:08.973Z,70.85
2018-07-20T13:51:19.061Z,71.04
2018-07-20T13:52:29.148Z,71.41
2018-07-20T13:53:39.239Z,71.5
2018-07-20T13:54:49.345Z,71.47
2018-07-20T13:55:59.183Z,71.66
2018-07-20T13:57:09.009Z,71.66
2018-07-20T13:58:18.831Z,71.62
2018-07-20T13:59:29.083Z,71.53
2018-07-20T14:00:39.168Z,71.83
2018-07-20T14:01:48.765Z,71.53
2018-07-20T14:02:58.861Z,71.62
2018-07-20T14:04:08.757Z,71.5
2018-07-20T14:05:18.567Z,71.4
2018-07-20T14:06:28.669Z,71.59
2018-07-20T14:07:38.488Z,71.3
2018-07-20T14:08:48.340Z,70.98
2018-07-20T14:09:58.428Z,70.59
2018-07-20T14:11:08.296Z,70.23
2018-07-20T14:12:18.426Z,70.72
2018-07-20T14:13:28.544Z,70.42
2018-07-20T14:14:38.644Z,70.23
2018-07-20T14:15:48.471Z,69.67
2018-07-20T14:16:58.574Z,70.06
2018-07-20T14:18:08.564Z,70.03
2018-07-20T14:19:18.777Z,70.13
2018-07-20T14:20:28.856Z,69.87
2018-07-20T14:21:38.955Z,69.57
2018-07-20T14:22:49.033Z,69.51
2018-07-20T14:23:59.133Z,69.15
2018-07-20T14:25:09.246Z,68.99
2018-07-20T14:26:19.439Z,69.22
2018-07-20T14:27:29.870Z,69.32
2018-07-20T14:28:39.964Z,68.73
2018-07-20T14:29:50.061Z,68.92
2018-07-20T14:31:00.160Z,69.12
2018-07-20T14:32:10.234Z,69.51
2018-07-20T14:33:20.429Z,69.32
2018-07-20T14:34:30.744Z,69.51
2018-07-20T14:35:40.575Z,69.32
2018-07-20T14:36:50.651Z,69.42
2018-07-20T14:38:00.539Z,69.81
2018-07-20T14:41:51.064Z,70.4
2018-07-20T14:43:00.992Z,70.76
2018-07-20T14:44:11.296Z,70.82
2018-07-20T14:45:21.134Z,71.7
2018-07-20T14:46:30.973Z,71.37
2018-07-20T14:47:41.112Z,71.53
2018-07-20T14:48:50.954Z,71.93
2018-07-20T14:50:01.043Z,71.64
2018-07-20T14:51:11.514Z,71.41
2018-07-20T14:52:21.569Z,71.41
2018-07-20T14:53:31.766Z,71.14
2018-07-20T14:54:41.863Z,70.95
2018-07-20T14:55:51.775Z,69.9
2018-07-20T14:57:01.857Z,70.53
2018-07-20T14:58:11.950Z,70.23
2018-07-20T14:59:22.041Z,70.03
2018-07-20T15:00:32.118Z,69.74
2018-07-20T15:01:42.045Z,69.97
2018-07-20T15:02:52.095Z,69.97
2018-07-20T15:04:02.173Z,70.46
2018-07-20T15:05:12.273Z,70.36
2018-07-20T15:06:22.367Z,70.26
2018-07-20T15:07:32.177Z,69.97
2018-07-20T15:08:42.591Z,69.87
2018-07-20T15:09:52.444Z,69.87
2018-07-20T15:11:02.604Z,70.07
2018-07-20T15:12:12.739Z,69.87
2018-07-20T15:13:23.013Z,70.07
2018-07-20T15:14:32.869Z,70.07
2018-07-20T15:15:42.685Z,69.78
2018-07-20T15:16:52.771Z,69.97
2018-07-20T15:18:02.982Z,70.07
2018-07-20T15:19:13.263Z,70.56
2018-07-20T15:20:23.377Z,70.46
2018-07-20T15:21:33.458Z,70.17
2018-07-20T15:22:43.315Z,70.36
2018-07-20T15:23:53.122Z,70.36
2018-07-20T15:25:03.229Z,70.36
2018-07-20T15:26:13.320Z,70.46
2018-07-20T15:27:23.432Z,70.36
2018-07-20T15:28:33.565Z,70.46
2018-07-20T15:29:43.850Z,70.46
2018-07-20T15:30:53.931Z,70.17
2018-07-20T15:32:04.030Z,70.46
2018-07-20T15:33:13.849Z,70.26
2018-07-20T15:34:24.063Z,69.97
2018-07-20T15:35:34.155Z,70.66
2018-07-20T15:36:44.256Z,70.62
2018-07-20T15:37:54.993Z,70.53
2018-07-20T15:39:05.329Z,71.11